Terminal Aerodrome Forecast
Issued by NWS

Home | Current Version | Previous Version | Text Only | Print | Product List | Glossary On
Versions: 1 2 3 4 5 6 7 8 9 10 11 12 13 14 15 16 17
000
FTUS43 KPAH 191200 AAA
TAFCGI
TAF AMD
KCGI 191224Z 1912/2012 VRB03KT 3SM BR SKC
      TEMPO 1912/1914 1/4SM FG VV002
     FM191500 20003KT P6SM FEW025 SCT250
     FM200700 00000KT 3SM BR BKN120
      TEMPO 2008/2012 1SM BR
      AMD NOT SKED=

USA.gov is the U.S. government's official web portal to all federal, state and local government web resources and services.